createdAt,value
2023-05-05T00:00:07.694Z,101706.12
2023-05-05T00:00:38.195Z,101705.45
2023-05-05T00:01:08.645Z,101703.84
2023-05-05T00:01:39.071Z,101704.84
2023-05-05T00:02:09.504Z,101703.50
2023-05-05T00:02:40.042Z,101698.28
2023-05-05T00:03:10.548Z,101704.28
2023-05-05T00:03:41.031Z,101702.16
2023-05-05T00:04:11.491Z,101705.50
2023-05-05T00:04:41.881Z,101699.34
2023-05-05T00:05:12.308Z,101702.23
2023-05-05T00:05:42.729Z,101702.58
2023-05-05T00:06:13.161Z,101697.58
2023-05-05T00:06:43.571Z,101701.91
2023-05-05T00:07:13.999Z,101702.23
2023-05-05T00:07:44.434Z,101702.14
2023-05-05T00:08:14.855Z,101701.64
2023-05-05T00:08:45.276Z,101698.92
2023-05-05T00:09:15.698Z,101699.62
2023-05-05T00:09:46.133Z,101701.89
2023-05-05T00:10:16.594Z,101702.17
2023-05-05T00:10:46.978Z,101705.02
2023-05-05T00:11:17.426Z,101703.69
2023-05-05T00:11:47.845Z,101703.44
2023-05-05T00:12:18.274Z,101702.56
2023-05-05T00:12:48.703Z,101702.41
2023-05-05T00:13:19.103Z,101702.70
2023-05-05T00:13:49.535Z,101700.39
2023-05-05T00:14:19.954Z,101702.10
2023-05-05T00:14:50.400Z,101700.23
2023-05-05T00:15:20.827Z,101702.03
2023-05-05T00:15:51.307Z,101700.00
2023-05-05T00:16:21.752Z,101703.81
2023-05-05T00:16:52.143Z,101702.75
2023-05-05T00:17:22.540Z,101702.23
2023-05-05T00:17:53.089Z,101700.44
2023-05-05T00:18:23.521Z,101699.08
2023-05-05T00:18:53.949Z,101702.77
2023-05-05T00:19:24.377Z,101702.12
2023-05-05T00:19:54.808Z,101702.55
2023-05-05T00:20:25.239Z,101702.41
2023-05-05T00:20:55.650Z,101703.14
2023-05-05T00:21:26.073Z,101698.52
2023-05-05T00:21:56.502Z,101700.89
2023-05-05T00:22:26.925Z,101698.04
2023-05-05T00:22:57.353Z,101697.51
2023-05-05T00:23:27.791Z,101696.66
2023-05-05T00:23:58.194Z,101694.02
2023-05-05T00:24:28.634Z,101693.56
2023-05-05T00:24:59.061Z,101697.69
2023-05-05T00:25:29.493Z,101694.71
2023-05-05T00:25:59.909Z,101695.92
2023-05-05T00:26:30.337Z,101695.69
2023-05-05T00:27:00.803Z,101693.80
2023-05-05T00:27:31.223Z,101694.87
2023-05-05T00:28:01.658Z,101692.19
2023-05-05T00:28:32.084Z,101692.85
2023-05-05T00:29:02.516Z,101693.34
2023-05-05T00:29:32.962Z,101692.67
2023-05-05T00:30:03.364Z,101694.62
2023-05-05T00:30:33.788Z,101693.80
2023-05-05T00:31:04.272Z,101693.89
2023-05-05T00:31:34.734Z,101693.09
2023-05-05T00:32:05.211Z,101693.52
2023-05-05T00:32:35.731Z,101693.38
2023-05-05T00:33:06.116Z,101692.55
2023-05-05T00:33:36.543Z,101691.32
2023-05-05T00:34:07.004Z,101686.88
2023-05-05T00:34:37.404Z,101691.26
2023-05-05T00:35:07.841Z,101687.45
2023-05-05T00:35:38.259Z,101687.73
2023-05-05T00:36:08.683Z,101687.22
2023-05-05T00:36:39.109Z,101687.28
2023-05-05T00:37:09.530Z,101688.20
2023-05-05T00:37:39.952Z,101688.28
2023-05-05T00:38:10.376Z,101689.30
2023-05-05T00:38:40.808Z,101691.25
2023-05-05T00:39:11.245Z,101687.98
2023-05-05T00:39:41.680Z,101687.27
2023-05-05T00:40:12.100Z,101685.20
2023-05-05T00:40:42.544Z,101685.78
2023-05-05T00:41:12.953Z,101685.78
2023-05-05T00:41:43.372Z,101685.11
2023-05-05T00:42:13.804Z,101682.87
2023-05-05T00:42:44.229Z,101687.60
2023-05-05T00:43:14.656Z,101682.41
2023-05-05T00:43:45.093Z,101683.67
2023-05-05T00:44:15.517Z,101683.07
2023-05-05T00:44:45.954Z,101679.88
2023-05-05T00:45:16.362Z,101680.67
2023-05-05T00:45:46.786Z,101677.97
2023-05-05T00:46:17.272Z,101681.43
2023-05-05T00:46:47.706Z,101679.61
2023-05-05T00:47:18.106Z,101682.80
2023-05-05T00:47:48.538Z,101678.59
2023-05-05T00:48:18.971Z,101682.94
2023-05-05T00:48:49.453Z,101680.28
2023-05-05T00:49:19.857Z,101681.16
2023-05-05T00:49:50.261Z,101681.11
2023-05-05T00:50:20.688Z,101679.09
2023-05-05T00:50:51.120Z,101681.31
2023-05-05T00:51:21.549Z,101681.09
2023-05-05T00:51:51.955Z,101681.56
2023-05-05T00:52:22.386Z,101678.17
2023-05-05T00:52:52.800Z,101674.97
2023-05-05T00:53:23.264Z,101679.52
2023-05-05T00:53:53.682Z,101677.30
2023-05-05T00:54:24.102Z,101677.34
2023-05-05T00:54:54.531Z,101677.55
2023-05-05T00:55:24.964Z,101679.23
2023-05-05T00:55:55.400Z,101672.60
2023-05-05T00:56:25.813Z,101673.38
2023-05-05T00:56:56.220Z,101673.85
2023-05-05T00:57:26.640Z,101674.78
2023-05-05T00:57:57.082Z,101674.89
2023-05-05T00:58:27.501Z,101676.04
2023-05-05T00:58:57.924Z,101672.12
2023-05-05T00:59:28.349Z,101671.62
2023-05-05T00:59:58.773Z,101673.96
2023-05-05T01:00:29.190Z,101673.91
2023-05-05T01:00:59.617Z,101677.41
2023-05-05T01:01:30.108Z,101674.25
2023-05-05T01:02:00.560Z,101674.12
2023-05-05T01:02:31.062Z,101677.98
2023-05-05T01:03:01.952Z,101675.77
2023-05-05T01:03:32.510Z,101674.09
2023-05-05T01:04:03.051Z,101675.98
2023-05-05T01:04:33.465Z,101675.80
2023-05-05T01:05:03.934Z,101676.16
2023-05-05T01:05:34.320Z,101674.30
2023-05-05T01:06:04.752Z,101679.05
2023-05-05T01:06:35.175Z,101672.48
2023-05-05T01:07:05.594Z,101674.98
2023-05-05T01:07:36.033Z,101675.11
2023-05-05T01:08:06.469Z,101674.09
2023-05-05T01:08:36.897Z,101674.07
2023-05-05T01:09:07.319Z,101672.53
2023-05-05T01:09:37.739Z,101675.30
2023-05-05T01:10:19.756Z,101674.69
2023-05-05T01:10:43.488Z,101671.14
2023-05-05T01:11:13.939Z,101671.48
2023-05-05T01:11:44.330Z,101672.91
2023-05-05T01:12:14.776Z,101672.12
2023-05-05T01:12:45.237Z,101672.55
2023-05-05T01:13:15.628Z,101672.19
2023-05-05T01:13:46.061Z,101667.79
2023-05-05T01:14:16.477Z,101667.67
2023-05-05T01:14:46.902Z,101669.01
2023-05-05T01:15:17.331Z,101669.10
2023-05-05T01:15:47.759Z,101671.98
2023-05-05T01:16:18.224Z,101669.43
2023-05-05T01:16:48.610Z,101667.59
2023-05-05T01:17:19.053Z,101666.38
2023-05-05T01:17:49.470Z,101668.75
2023-05-05T01:18:19.886Z,101670.09
2023-05-05T01:18:50.337Z,101672.95
2023-05-05T01:19:20.747Z,101669.41
2023-05-05T01:19:51.176Z,101670.42
2023-05-05T01:20:21.592Z,101669.41
2023-05-05T01:20:52.015Z,101670.22
2023-05-05T01:21:22.437Z,101667.03
2023-05-05T01:21:52.871Z,101666.02
2023-05-05T01:22:23.304Z,101668.36
2023-05-05T01:22:53.737Z,101669.03
2023-05-05T01:23:24.161Z,101668.19
2023-05-05T01:23:54.587Z,101669.19
2023-05-05T01:24:25.007Z,101669.70
2023-05-05T01:24:55.432Z,101670.50
2023-05-05T01:25:25.866Z,101668.69
2023-05-05T01:25:56.287Z,101669.27
2023-05-05T01:26:26.735Z,101668.66
2023-05-05T01:26:57.154Z,101670.20
2023-05-05T01:27:27.576Z,101670.44
2023-05-05T01:27:58.002Z,101670.58
2023-05-05T01:28:28.426Z,101668.89
2023-05-05T01:28:58.871Z,101668.02
2023-05-05T01:29:29.292Z,101667.58
2023-05-05T01:29:59.704Z,101665.19
2023-05-05T01:30:30.139Z,101668.06
2023-05-05T01:31:00.575Z,101667.53
2023-05-05T01:31:31.011Z,101666.37
2023-05-05T01:32:01.600Z,101668.68
2023-05-05T01:32:32.129Z,101666.52
2023-05-05T01:33:02.538Z,101667.03
2023-05-05T01:33:32.955Z,101668.02
2023-05-05T01:34:03.407Z,101668.34
2023-05-05T01:34:33.811Z,101669.27
2023-05-05T01:35:04.248Z,101670.80
2023-05-05T01:35:34.652Z,101668.17
2023-05-05T01:36:05.098Z,101668.17
2023-05-05T01:36:35.520Z,101667.97
2023-05-05T01:37:05.954Z,101667.72
2023-05-05T01:37:36.374Z,101664.09
2023-05-05T01:38:06.799Z,101668.59
2023-05-05T01:38:37.212Z,101669.91
2023-05-05T01:39:07.635Z,101668.27
2023-05-05T01:39:38.056Z,101665.58
2023-05-05T01:40:08.686Z,101666.75
2023-05-05T01:40:39.206Z,101670.06
2023-05-05T01:41:09.638Z,101668.37
2023-05-05T01:41:40.096Z,101668.05
2023-05-05T01:42:10.496Z,101672.12
2023-05-05T01:42:40.921Z,101669.39
2023-05-05T01:43:11.343Z,101672.11
2023-05-05T01:43:41.765Z,101673.97
2023-05-05T01:44:12.183Z,101672.62
2023-05-05T01:44:42.618Z,101672.95
2023-05-05T01:45:13.072Z,101674.30
2023-05-05T01:45:43.483Z,101675.02
2023-05-05T01:46:13.911Z,101672.48
2023-05-05T01:46:44.315Z,101673.16
2023-05-05T01:47:14.760Z,101674.01
2023-05-05T01:47:45.173Z,101675.68
2023-05-05T01:48:15.595Z,101671.80
2023-05-05T01:48:46.029Z,101672.72
2023-05-05T01:49:16.452Z,101673.60
2023-05-05T01:49:46.880Z,101672.08
2023-05-05T01:50:17.313Z,101672.07
2023-05-05T01:50:47.726Z,101674.59
2023-05-05T01:51:18.160Z,101674.30
2023-05-05T01:51:48.593Z,101671.34
2023-05-05T01:52:19.017Z,101671.80
2023-05-05T01:52:49.452Z,101674.45
2023-05-05T01:53:19.896Z,101676.11
2023-05-05T01:53:50.289Z,101670.38
2023-05-05T01:54:20.710Z,101670.66
2023-05-05T01:54:51.152Z,101670.31
2023-05-05T01:55:21.577Z,101669.27
2023-05-05T01:55:52.036Z,101671.41
2023-05-05T01:56:22.435Z,101668.02
2023-05-05T01:56:52.875Z,101670.79
2023-05-05T01:57:23.288Z,101666.44
2023-05-05T01:57:53.710Z,101668.75
2023-05-05T01:58:24.127Z,101663.69
2023-05-05T01:58:54.549Z,101666.97
2023-05-05T01:59:24.973Z,101665.56
2023-05-05T01:59:55.394Z,101662.73
2023-05-05T02:00:25.844Z,101663.38
2023-05-05T02:00:56.306Z,101663.16
2023-05-05T02:01:26.734Z,101665.31
2023-05-05T02:01:57.121Z,101664.24
2023-05-05T02:02:27.610Z,101669.58
2023-05-05T02:02:58.089Z,101670.27
2023-05-05T02:03:28.492Z,101663.45
2023-05-05T02:03:58.971Z,101667.27
2023-05-05T02:04:29.350Z,101665.00
2023-05-05T02:04:59.767Z,101663.73
2023-05-05T02:05:30.217Z,101661.88
2023-05-05T02:06:00.625Z,101664.31
2023-05-05T02:06:31.070Z,101663.95
2023-05-05T02:07:01.486Z,101663.12
2023-05-05T02:07:31.907Z,101660.06
2023-05-05T02:08:02.336Z,101661.20
2023-05-05T02:08:32.764Z,101661.03
2023-05-05T02:09:03.213Z,101659.08
2023-05-05T02:09:33.617Z,101659.30
2023-05-05T02:10:04.033Z,101661.95
2023-05-05T02:10:34.461Z,101662.14
2023-05-05T02:11:04.882Z,101657.77
2023-05-05T02:11:35.318Z,101661.66
2023-05-05T02:12:05.784Z,101662.20
2023-05-05T02:12:36.207Z,101659.39
2023-05-05T02:13:06.665Z,101658.54
2023-05-05T02:13:37.089Z,101658.72
2023-05-05T02:14:07.503Z,101655.38
2023-05-05T02:14:37.919Z,101655.90
2023-05-05T02:15:08.363Z,101658.23
2023-05-05T02:15:38.821Z,101656.55
2023-05-05T02:16:09.253Z,101655.68
2023-05-05T02:16:39.634Z,101659.56
2023-05-05T02:17:10.057Z,101655.50
2023-05-05T02:17:40.529Z,101656.44
2023-05-05T02:18:10.938Z,101656.88
2023-05-05T02:18:41.355Z,101659.39
2023-05-05T02:19:11.777Z,101655.79
2023-05-05T02:19:42.207Z,101658.89
2023-05-05T02:20:12.643Z,101659.67
2023-05-05T02:20:43.060Z,101656.34
2023-05-05T02:21:13.503Z,101658.97
2023-05-05T02:21:43.910Z,101654.58
2023-05-05T02:22:14.342Z,101657.20
2023-05-05T02:22:44.761Z,101657.94
2023-05-05T02:23:15.182Z,101657.06
2023-05-05T02:23:45.604Z,101657.48
2023-05-05T02:24:16.025Z,101659.12
2023-05-05T02:24:46.464Z,101656.11
2023-05-05T02:25:16.910Z,101653.50
2023-05-05T02:25:47.314Z,101652.78
2023-05-05T02:26:17.739Z,101660.12
2023-05-05T02:26:48.168Z,101657.91
2023-05-05T02:27:18.616Z,101653.26
2023-05-05T02:27:49.031Z,101658.97
2023-05-05T02:28:19.442Z,101652.34
2023-05-05T02:28:49.881Z,101652.77
2023-05-05T02:29:20.306Z,101651.91
2023-05-05T02:29:50.751Z,101649.92
2023-05-05T02:30:21.175Z,101651.27
2023-05-05T02:30:51.594Z,101648.38
2023-05-05T02:31:22.064Z,101650.77
2023-05-05T02:31:52.626Z,101651.12
2023-05-05T02:32:23.159Z,101652.62
2023-05-05T02:32:53.641Z,101647.53
2023-05-05T02:33:24.056Z,101651.37
2023-05-05T02:33:54.491Z,101651.50
2023-05-05T02:34:24.925Z,101650.53
2023-05-05T02:34:55.375Z,101651.40
2023-05-05T02:35:25.776Z,101648.02
2023-05-05T02:35:56.208Z,101652.41
2023-05-05T02:36:26.638Z,101651.23
2023-05-05T02:36:57.058Z,101650.02
2023-05-05T02:37:27.487Z,101651.75
2023-05-05T02:37:57.907Z,101651.96
2023-05-05T02:38:28.326Z,101650.23
2023-05-05T02:38:58.766Z,101650.52
2023-05-05T02:39:29.199Z,101649.65
2023-05-05T02:39:59.628Z,101649.91
2023-05-05T02:40:30.049Z,101651.61
2023-05-05T02:41:00.467Z,101648.50
2023-05-05T02:41:30.890Z,101648.32
2023-05-05T02:42:01.313Z,101646.89
2023-05-05T02:42:31.755Z,101644.72
2023-05-05T02:43:02.216Z,101647.00
2023-05-05T02:43:32.595Z,101646.84
2023-05-05T02:44:03.046Z,101646.25
2023-05-05T02:44:33.468Z,101646.75
2023-05-05T02:45:03.890Z,101646.80
2023-05-05T02:45:34.330Z,101648.66
2023-05-05T02:46:04.765Z,101647.64
2023-05-05T02:46:35.215Z,101645.94
2023-05-05T02:47:05.604Z,101644.58
2023-05-05T02:47:36.098Z,101644.69
2023-05-05T02:48:06.727Z,101644.61
2023-05-05T02:48:37.135Z,101641.41
2023-05-05T02:49:07.561Z,101644.27
2023-05-05T02:49:38.000Z,101645.84
2023-05-05T02:50:08.559Z,101644.48
2023-05-05T02:50:39.256Z,101643.62
2023-05-05T02:51:09.675Z,101641.94
2023-05-05T02:51:40.103Z,101644.08
2023-05-05T02:52:10.527Z,101643.55
2023-05-05T02:52:40.973Z,101647.09
2023-05-05T02:53:11.378Z,101642.52
2023-05-05T02:53:41.812Z,101646.03
2023-05-05T02:54:12.237Z,101645.48
2023-05-05T02:54:42.663Z,101644.00
2023-05-05T02:55:13.078Z,101649.19
2023-05-05T02:55:43.507Z,101646.52
2023-05-05T02:56:13.929Z,101644.70
2023-05-05T02:56:44.352Z,101642.50
2023-05-05T02:57:14.780Z,101647.65
2023-05-05T02:57:45.225Z,101647.39
2023-05-05T02:58:15.633Z,101649.02
2023-05-05T02:58:46.076Z,101650.13
2023-05-05T02:59:16.675Z,101650.83
2023-05-05T02:59:47.054Z,101650.17
2023-05-05T03:00:17.482Z,101648.62
2023-05-05T03:00:47.912Z,101650.12
2023-05-05T03:01:18.350Z,101645.88
2023-05-05T03:01:48.770Z,101652.64
2023-05-05T03:02:19.171Z,101646.85
2023-05-05T03:02:49.636Z,101652.06
2023-05-05T03:03:20.099Z,101646.16
2023-05-05T03:03:50.744Z,101648.98
2023-05-05T03:04:21.256Z,101647.66
2023-05-05T03:04:51.680Z,101644.39
2023-05-05T03:05:22.108Z,101650.62
2023-05-05T03:05:52.534Z,101648.19
2023-05-05T03:06:22.940Z,101645.05
2023-05-05T03:06:53.360Z,101645.53
2023-05-05T03:07:23.787Z,101645.95
2023-05-05T03:07:54.242Z,101647.12
2023-05-05T03:08:24.663Z,101647.27
2023-05-05T03:08:55.109Z,101645.43
2023-05-05T03:09:25.516Z,101643.43
2023-05-05T03:09:55.931Z,101647.42
2023-05-05T03:10:26.363Z,101646.78
2023-05-05T03:10:56.783Z,101645.48
2023-05-05T03:11:27.243Z,101648.77
2023-05-05T03:11:57.658Z,101648.77
2023-05-05T03:12:28.101Z,101649.54
2023-05-05T03:12:58.634Z,101648.98
2023-05-05T03:13:29.011Z,101647.81
2023-05-05T03:13:59.438Z,101647.44
2023-05-05T03:14:32.012Z,101647.14
2023-05-05T03:15:03.693Z,101645.79
2023-05-05T03:15:34.119Z,101645.97
2023-05-05T03:16:04.576Z,101644.34
2023-05-05T03:16:35.049Z,101646.96
2023-05-05T03:17:05.453Z,101646.97
2023-05-05T03:17:35.942Z,101644.66
2023-05-05T03:18:06.405Z,101643.47
2023-05-05T03:18:36.808Z,101643.73
2023-05-05T03:19:07.232Z,101644.91
2023-05-05T03:19:37.654Z,101644.52
2023-05-05T03:20:08.332Z,101642.34
2023-05-05T03:20:38.791Z,101642.46
2023-05-05T03:21:09.220Z,101642.81
2023-05-05T03:21:39.639Z,101643.43
2023-05-05T03:22:10.059Z,101641.19
2023-05-05T03:22:40.497Z,101640.39
2023-05-05T03:23:10.920Z,101641.57
2023-05-05T03:23:41.339Z,101641.20
2023-05-05T03:24:11.758Z,101642.03
2023-05-05T03:24:42.181Z,101643.03
2023-05-05T03:25:12.677Z,101642.84
2023-05-05T03:25:43.050Z,101642.14
2023-05-05T03:26:13.472Z,101644.08
2023-05-05T03:26:43.897Z,101646.42
2023-05-05T03:27:14.339Z,101645.52
2023-05-05T03:27:44.771Z,101644.86
2023-05-05T03:28:15.212Z,101647.81
2023-05-05T03:28:45.615Z,101644.89
2023-05-05T03:29:16.089Z,101645.70
2023-05-05T03:29:46.458Z,101649.88
2023-05-05T03:30:16.886Z,101649.20
2023-05-05T03:30:47.297Z,101649.61
2023-05-05T03:31:17.739Z,101653.13
2023-05-05T03:31:48.175Z,101652.62
2023-05-05T03:32:18.593Z,101652.53
2023-05-05T03:32:49.034Z,101654.84
2023-05-05T03:33:19.435Z,101655.52
2023-05-05T03:33:49.865Z,101653.32
2023-05-05T03:34:20.282Z,101658.03
2023-05-05T03:34:50.706Z,101656.76
2023-05-05T03:35:21.152Z,101655.70
2023-05-05T03:35:51.559Z,101653.89
2023-05-05T03:36:21.985Z,101653.91
2023-05-05T03:36:52.424Z,101652.99
2023-05-05T03:37:22.852Z,101656.62
2023-05-05T03:37:53.281Z,101652.28
2023-05-05T03:38:23.708Z,101650.96
2023-05-05T03:38:54.137Z,101651.96
2023-05-05T03:39:24.561Z,101647.05
2023-05-05T03:39:54.996Z,101650.12
2023-05-05T03:40:36.339Z,101648.73
2023-05-05T03:41:00.737Z,101651.04
2023-05-05T03:41:31.172Z,101648.02
2023-05-05T03:42:01.594Z,101652.30
2023-05-05T03:42:32.017Z,101653.08
2023-05-05T03:43:02.458Z,101650.88
2023-05-05T03:43:32.901Z,101649.23
2023-05-05T03:44:03.316Z,101652.95
2023-05-05T03:44:33.739Z,101652.06
2023-05-05T03:45:04.144Z,101649.75
2023-05-05T03:45:34.592Z,101652.75
2023-05-05T03:46:05.069Z,101650.83
2023-05-05T03:46:35.456Z,101651.66
2023-05-05T03:47:05.881Z,101649.98
2023-05-05T03:47:36.327Z,101649.09
2023-05-05T03:48:06.805Z,101648.94
2023-05-05T03:48:37.253Z,101647.38
2023-05-05T03:49:07.675Z,101650.34
2023-05-05T03:49:38.095Z,101651.45
2023-05-05T03:50:08.698Z,101649.48
2023-05-05T03:50:39.332Z,101644.78
2023-05-05T03:51:09.727Z,101645.60
2023-05-05T03:51:40.158Z,101645.22
2023-05-05T03:52:11.158Z,101645.38
2023-05-05T03:52:42.513Z,101645.88
2023-05-05T03:53:12.936Z,101642.12
2023-05-05T03:53:43.363Z,101637.94
2023-05-05T03:54:13.796Z,101639.55
2023-05-05T03:54:44.220Z,101641.52
2023-05-05T03:55:14.633Z,101642.69
2023-05-05T03:55:45.078Z,101639.77
2023-05-05T03:56:15.505Z,101643.48
2023-05-05T03:56:45.923Z,101641.58
2023-05-05T03:57:16.348Z,101644.30
2023-05-05T03:57:46.772Z,101641.33
2023-05-05T03:58:17.200Z,101644.09
2023-05-05T03:58:47.642Z,101642.14
2023-05-05T03:59:18.056Z,101641.42
2023-05-05T03:59:48.472Z,101642.59
2023-05-05T04:00:18.896Z,101642.31
2023-05-05T04:00:49.325Z,101641.59
2023-05-05T04:01:19.757Z,101644.08
2023-05-05T04:01:50.191Z,101642.08
2023-05-05T04:02:20.693Z,101639.88
2023-05-05T04:02:51.153Z,101641.03
2023-05-05T04:03:21.718Z,101639.95
2023-05-05T04:03:52.353Z,101638.69
2023-05-05T04:04:22.878Z,101645.75
2023-05-05T04:04:53.289Z,101643.92
2023-05-05T04:05:23.719Z,101642.39
2023-05-05T04:05:54.175Z,101639.31
2023-05-05T04:06:24.583Z,101636.75
2023-05-05T04:06:55.048Z,101642.07
2023-05-05T04:07:25.426Z,101643.02
2023-05-05T04:07:55.849Z,101643.41
2023-05-05T04:08:26.269Z,101640.07
2023-05-05T04:08:56.701Z,101639.85
2023-05-05T04:09:27.118Z,101642.34
2023-05-05T04:09:57.534Z,101640.02
2023-05-05T04:10:27.978Z,101641.59
2023-05-05T04:10:58.397Z,101642.08
2023-05-05T04:11:28.833Z,101640.55
2023-05-05T04:11:59.249Z,101639.44
2023-05-05T04:12:29.677Z,101643.21
2023-05-05T04:13:00.114Z,101641.02
2023-05-05T04:13:30.570Z,101639.77
2023-05-05T04:14:01.012Z,101639.92
2023-05-05T04:14:31.417Z,101641.58
2023-05-05T04:15:01.848Z,101644.53
2023-05-05T04:15:32.282Z,101641.93
2023-05-05T04:16:02.750Z,101641.19
2023-05-05T04:16:33.159Z,101644.38
2023-05-05T04:17:03.597Z,101641.44
2023-05-05T04:17:34.051Z,101637.92
2023-05-05T04:18:04.525Z,101639.58
2023-05-05T04:18:34.931Z,101642.92
2023-05-05T04:19:05.352Z,101640.72
2023-05-05T04:19:35.767Z,101636.53
2023-05-05T04:20:06.326Z,101637.38
2023-05-05T04:20:36.762Z,101639.44
2023-05-05T04:21:07.192Z,101635.77
2023-05-05T04:21:37.622Z,101639.80
2023-05-05T04:22:08.060Z,101640.00
2023-05-05T04:22:38.465Z,101641.73
2023-05-05T04:23:08.890Z,101637.72
2023-05-05T04:23:39.312Z,101638.69
2023-05-05T04:24:09.756Z,101642.00
2023-05-05T04:24:40.174Z,101644.68
2023-05-05T04:25:10.618Z,101642.09
2023-05-05T04:25:41.038Z,101643.02
2023-05-05T04:26:11.456Z,101643.53
2023-05-05T04:26:41.872Z,101645.02
2023-05-05T04:27:12.297Z,101642.66
2023-05-05T04:27:42.720Z,101644.94
2023-05-05T04:28:13.139Z,101646.16
2023-05-05T04:28:43.564Z,101644.27
2023-05-05T04:29:14.002Z,101645.91
2023-05-05T04:29:44.418Z,101647.66
2023-05-05T04:30:14.842Z,101647.98
2023-05-05T04:30:45.266Z,101647.67
2023-05-05T04:31:15.726Z,101648.56
2023-05-05T04:31:46.211Z,101650.41
2023-05-05T04:32:16.692Z,101651.86
2023-05-05T04:32:47.164Z,101651.38
2023-05-05T04:33:17.545Z,101649.86
2023-05-05T04:33:47.968Z,101650.74
2023-05-05T04:34:18.407Z,101647.88
2023-05-05T04:34:48.827Z,101654.28
2023-05-05T04:35:19.262Z,101652.02
2023-05-05T04:35:49.676Z,101654.80
2023-05-05T04:36:20.100Z,101656.26
2023-05-05T04:36:50.518Z,101653.70
2023-05-05T04:37:20.949Z,101654.92
2023-05-05T04:37:51.365Z,101654.91
2023-05-05T04:38:21.835Z,101655.58
2023-05-05T04:38:52.251Z,101654.62
2023-05-05T04:39:22.659Z,101655.66
2023-05-05T04:39:53.079Z,101656.84
2023-05-05T04:40:23.501Z,101657.00
2023-05-05T04:40:53.941Z,101655.42
2023-05-05T04:41:24.371Z,101654.47
2023-05-05T04:41:54.793Z,101656.89
2023-05-05T04:42:25.219Z,101654.58
2023-05-05T04:42:55.649Z,101655.12
2023-05-05T04:43:26.077Z,101655.62
2023-05-05T04:43:56.497Z,101654.41
2023-05-05T04:44:26.951Z,101656.72
2023-05-05T04:44:57.362Z,101659.25
2023-05-05T04:45:27.790Z,101655.22
2023-05-05T04:45:58.224Z,101658.58
2023-05-05T04:46:28.689Z,101660.12
2023-05-05T04:46:59.078Z,101656.67
2023-05-05T04:47:29.525Z,101660.47
2023-05-05T04:47:59.969Z,101660.75
2023-05-05T04:48:30.364Z,101663.95
2023-05-05T04:49:00.809Z,101665.02
2023-05-05T04:49:31.211Z,101666.02
2023-05-05T04:50:01.645Z,101664.42
2023-05-05T04:50:32.053Z,101665.25
2023-05-05T04:51:02.478Z,101666.67
2023-05-05T04:51:32.922Z,101670.33
2023-05-05T04:52:03.344Z,101670.39
2023-05-05T04:52:33.775Z,101667.70
2023-05-05T04:53:04.191Z,101669.69
2023-05-05T04:53:34.624Z,101672.86
2023-05-05T04:54:05.106Z,101672.05
2023-05-05T04:54:35.520Z,101677.48
2023-05-05T04:55:05.942Z,101679.17
2023-05-05T04:55:36.365Z,101677.98
2023-05-05T04:56:06.787Z,101677.86
2023-05-05T04:56:37.260Z,101674.83
2023-05-05T04:57:07.639Z,101677.70
2023-05-05T04:57:38.058Z,101682.80
2023-05-05T04:58:08.491Z,101676.16
2023-05-05T04:58:38.944Z,101678.19
2023-05-05T04:59:09.361Z,101680.52
2023-05-05T04:59:39.806Z,101679.34
2023-05-05T05:00:10.354Z,101678.47
2023-05-05T05:00:40.842Z,101680.77
2023-05-05T05:01:11.279Z,101681.81
2023-05-05T05:01:41.728Z,101679.31
2023-05-05T05:02:12.138Z,101680.77
2023-05-05T05:02:42.575Z,101680.23
2023-05-05T05:03:13.048Z,101678.23
2023-05-05T05:03:43.588Z,101681.59
2023-05-05T05:04:14.031Z,101686.33
2023-05-05T05:04:44.442Z,101682.11
2023-05-05T05:05:14.893Z,101677.17
2023-05-05T05:05:45.300Z,101678.66
2023-05-05T05:06:15.720Z,101682.38
2023-05-05T05:06:46.180Z,101681.41
2023-05-05T05:07:16.587Z,101680.75
2023-05-05T05:07:46.995Z,101680.62
2023-05-05T05:08:17.439Z,101679.42
2023-05-05T05:08:47.889Z,101678.92
2023-05-05T05:09:18.320Z,101680.13
2023-05-05T05:09:48.744Z,101684.83
2023-05-05T05:10:19.168Z,101681.83
2023-05-05T05:10:49.599Z,101686.66
2023-05-05T05:11:20.014Z,101681.98
2023-05-05T05:11:50.435Z,101680.98
2023-05-05T05:12:20.860Z,101684.14
2023-05-05T05:12:51.313Z,101681.80
2023-05-05T05:13:21.794Z,101681.59
2023-05-05T05:13:52.170Z,101680.70
2023-05-05T05:14:22.588Z,101681.02
2023-05-05T05:14:53.079Z,101685.37
2023-05-05T05:15:23.434Z,101682.16
2023-05-05T05:15:53.869Z,101685.16
2023-05-05T05:16:24.349Z,101680.80
2023-05-05T05:16:54.875Z,101686.01
2023-05-05T05:17:25.310Z,101684.33
2023-05-05T05:17:55.743Z,101687.37
2023-05-05T05:18:26.161Z,101688.06
2023-05-05T05:18:56.592Z,101684.69
2023-05-05T05:19:27.004Z,101687.89
2023-05-05T05:19:57.430Z,101688.91
2023-05-05T05:20:27.856Z,101688.41
2023-05-05T05:20:58.291Z,101687.28
2023-05-05T05:21:28.716Z,101690.15
2023-05-05T05:21:59.147Z,101688.06
2023-05-05T05:22:29.583Z,101684.23
2023-05-05T05:23:00.008Z,101684.73
2023-05-05T05:23:30.431Z,101686.55
2023-05-05T05:24:00.853Z,101686.94
2023-05-05T05:24:31.291Z,101687.28
2023-05-05T05:25:01.726Z,101688.62
2023-05-05T05:25:32.140Z,101686.59
2023-05-05T05:26:02.560Z,101685.25
2023-05-05T05:26:33.068Z,101688.30
2023-05-05T05:27:03.432Z,101690.81
2023-05-05T05:27:33.864Z,101688.12
2023-05-05T05:28:09.637Z,101691.34
2023-05-05T05:28:39.615Z,101690.33
2023-05-05T05:29:10.056Z,101689.98
2023-05-05T05:29:40.460Z,101689.98
2023-05-05T05:30:10.927Z,101691.09
2023-05-05T05:30:41.317Z,101692.96
2023-05-05T05:31:11.754Z,101694.00
2023-05-05T05:31:42.186Z,101689.12
2023-05-05T05:32:12.701Z,101688.23
2023-05-05T05:32:43.207Z,101688.56
2023-05-05T05:33:13.625Z,101692.81
2023-05-05T05:33:44.067Z,101694.98
2023-05-05T05:34:14.500Z,101690.74
2023-05-05T05:34:44.915Z,101694.06
2023-05-05T05:35:15.336Z,101693.06
2023-05-05T05:35:45.777Z,101693.34
2023-05-05T05:36:16.185Z,101693.21
2023-05-05T05:36:46.608Z,101691.70
2023-05-05T05:37:17.065Z,101691.19
2023-05-05T05:37:47.480Z,101692.35
2023-05-05T05:38:17.904Z,101690.50
2023-05-05T05:38:48.330Z,101695.39
2023-05-05T05:39:18.765Z,101693.16
2023-05-05T05:39:49.185Z,101690.47
2023-05-05T05:40:19.627Z,101690.08
2023-05-05T05:40:50.111Z,101694.81
2023-05-05T05:41:20.572Z,101689.91
2023-05-05T05:41:51.008Z,101692.27
2023-05-05T05:42:21.438Z,101690.69
2023-05-05T05:42:51.861Z,101688.80
2023-05-05T05:43:22.289Z,101688.45
2023-05-05T05:43:52.713Z,101688.49
2023-05-05T05:44:23.138Z,101683.94
2023-05-05T05:44:53.563Z,101687.09
2023-05-05T05:45:24.018Z,101683.41
2023-05-05T05:45:54.436Z,101686.30
2023-05-05T05:46:24.871Z,101686.58
2023-05-05T05:46:55.296Z,101687.27
2023-05-05T05:47:25.768Z,101689.62